sensor_id;sensor_type;location;lat;lon;timestamp;P1;durP1;ratioP1;P2;durP2;ratioP2
7931;SDS011;4011;49.424;10.894;2023-02-11T00:03:22;9.70;;;7.80;;
7931;SDS011;4011;49.424;10.894;2023-02-11T00:08:45;10.35;;;7.82;;
7931;SDS011;4011;49.424;10.894;2023-02-11T00:14:07;9.82;;;7.72;;
7931;SDS011;4011;49.424;10.894;2023-02-11T00:19:28;10.10;;;8.07;;
7931;SDS011;4011;49.424;10.894;2023-02-11T00:24:51;10.38;;;8.32;;
7931;SDS011;4011;49.424;10.894;2023-02-11T00:30:12;11.30;;;8.13;;
7931;SDS011;4011;49.424;10.894;2023-02-11T00:35:35;9.90;;;7.97;;
7931;SDS011;4011;49.424;10.894;2023-02-11T00:40:58;10.52;;;7.60;;
7931;SDS011;4011;49.424;10.894;2023-02-11T00:46:19;10.85;;;8.57;;
7931;SDS011;4011;49.424;10.894;2023-02-11T00:51:41;10.05;;;7.75;;
7931;SDS011;4011;49.424;10.894;2023-02-11T00:57:04;11.50;;;8.23;;
7931;SDS011;4011;49.424;10.894;2023-02-11T01:02:25;10.60;;;8.13;;
7931;SDS011;4011;49.424;10.894;2023-02-11T01:07:46;10.30;;;7.88;;
7931;SDS011;4011;49.424;10.894;2023-02-11T01:13:09;10.38;;;8.25;;
7931;SDS011;4011;49.424;10.894;2023-02-11T01:18:30;9.23;;;7.38;;
7931;SDS011;4011;49.424;10.894;2023-02-11T01:23:52;9.68;;;7.75;;
7931;SDS011;4011;49.424;10.894;2023-02-11T01:29:14;11.02;;;7.93;;
7931;SDS011;4011;49.424;10.894;2023-02-11T01:34:36;10.38;;;8.13;;
7931;SDS011;4011;49.424;10.894;2023-02-11T01:39:57;9.93;;;7.55;;
7931;SDS011;4011;49.424;10.894;2023-02-11T01:51:15;10.93;;;8.00;;
7931;SDS011;4011;49.424;10.894;2023-02-11T01:56:39;10.20;;;7.82;;
7931;SDS011;4011;49.424;10.894;2023-02-11T02:02:21;9.77;;;8.00;;
7931;SDS011;4011;49.424;10.894;2023-02-11T02:07:48;10.65;;;7.97;;
7931;SDS011;4011;49.424;10.894;2023-02-11T02:13:10;10.38;;;8.13;;
7931;SDS011;4011;49.424;10.894;2023-02-11T02:18:34;9.85;;;7.85;;
7931;SDS011;4011;49.424;10.894;2023-02-11T02:24:03;11.73;;;7.90;;
7931;SDS011;4011;49.424;10.894;2023-02-11T02:29:36;9.77;;;7.80;;
7931;SDS011;4011;49.424;10.894;2023-02-11T02:35:07;10.65;;;8.23;;
7931;SDS011;4011;49.424;10.894;2023-02-11T02:40:31;10.93;;;7.90;;
7931;SDS011;4011;49.424;10.894;2023-02-11T02:45:53;10.98;;;7.70;;
7931;SDS011;4011;49.424;10.894;2023-02-11T02:51:19;10.23;;;7.93;;
7931;SDS011;4011;49.424;10.894;2023-02-11T02:56:47;9.75;;;7.57;;
7931;SDS011;4011;49.424;10.894;2023-02-11T03:02:11;9.73;;;8.18;;
7931;SDS011;4011;49.424;10.894;2023-02-11T03:07:36;9.63;;;7.57;;
7931;SDS011;4011;49.424;10.894;2023-02-11T03:13:01;8.90;;;7.15;;
7931;SDS011;4011;49.424;10.894;2023-02-11T03:18:23;9.40;;;7.32;;
7931;SDS011;4011;49.424;10.894;2023-02-11T03:23:48;10.07;;;7.93;;
7931;SDS011;4011;49.424;10.894;2023-02-11T03:29:13;10.15;;;7.65;;
7931;SDS011;4011;49.424;10.894;2023-02-11T03:34:37;9.10;;;7.55;;
7931;SDS011;4011;49.424;10.894;2023-02-11T03:40:02;11.02;;;7.88;;
7931;SDS011;4011;49.424;10.894;2023-02-11T03:45:25;10.57;;;7.75;;
7931;SDS011;4011;49.424;10.894;2023-02-11T03:50:47;10.23;;;7.53;;
7931;SDS011;4011;49.424;10.894;2023-02-11T03:56:10;8.73;;;7.10;;
7931;SDS011;4011;49.424;10.894;2023-02-11T04:01:33;9.60;;;7.47;;
7931;SDS011;4011;49.424;10.894;2023-02-11T04:06:54;9.80;;;7.57;;
7931;SDS011;4011;49.424;10.894;2023-02-11T04:12:18;9.75;;;7.25;;
7931;SDS011;4011;49.424;10.894;2023-02-11T04:17:39;9.07;;;7.25;;
7931;SDS011;4011;49.424;10.894;2023-02-11T04:23:00;9.48;;;7.15;;
7931;SDS011;4011;49.424;10.894;2023-02-11T04:28:23;9.20;;;7.05;;
7931;SDS011;4011;49.424;10.894;2023-02-11T04:33:48;9.25;;;7.57;;
7931;SDS011;4011;49.424;10.894;2023-02-11T04:39:09;8.63;;;6.60;;
7931;SDS011;4011;49.424;10.894;2023-02-11T04:44:32;9.13;;;6.93;;
7931;SDS011;4011;49.424;10.894;2023-02-11T04:49:53;10.02;;;7.22;;
7931;SDS011;4011;49.424;10.894;2023-02-11T04:55:15;8.80;;;6.82;;
7931;SDS011;4011;49.424;10.894;2023-02-11T05:00:37;8.98;;;6.93;;
7931;SDS011;4011;49.424;10.894;2023-02-11T05:05:59;7.95;;;6.38;;
7931;SDS011;4011;49.424;10.894;2023-02-11T05:11:20;8.48;;;6.53;;
7931;SDS011;4011;49.424;10.894;2023-02-11T05:16:43;8.20;;;6.38;;
7931;SDS011;4011;49.424;10.894;2023-02-11T05:22:05;8.98;;;6.20;;
7931;SDS011;4011;49.424;10.894;2023-02-11T05:27:26;8.90;;;6.05;;
7931;SDS011;4011;49.424;10.894;2023-02-11T05:32:49;8.23;;;5.97;;
7931;SDS011;4011;49.424;10.894;2023-02-11T05:38:10;7.40;;;5.68;;
7931;SDS011;4011;49.424;10.894;2023-02-11T05:43:32;7.30;;;5.38;;
7931;SDS011;4011;49.424;10.894;2023-02-11T05:48:55;7.70;;;5.13;;
7931;SDS011;4011;49.424;10.894;2023-02-11T05:54:17;8.10;;;5.40;;
7931;SDS011;4011;49.424;10.894;2023-02-11T05:59:38;7.63;;;5.15;;
7931;SDS011;4011;49.424;10.894;2023-02-11T06:05:01;7.85;;;5.18;;
7931;SDS011;4011;49.424;10.894;2023-02-11T06:10:22;7.18;;;4.90;;
7931;SDS011;4011;49.424;10.894;2023-02-11T06:15:44;7.30;;;5.47;;
7931;SDS011;4011;49.424;10.894;2023-02-11T06:21:07;6.85;;;4.65;;
7931;SDS011;4011;49.424;10.894;2023-02-11T06:26:29;6.20;;;4.70;;
7931;SDS011;4011;49.424;10.894;2023-02-11T06:31:50;6.15;;;4.85;;
7931;SDS011;4011;49.424;10.894;2023-02-11T06:37:13;7.45;;;5.43;;
7931;SDS011;4011;49.424;10.894;2023-02-11T06:42:34;7.78;;;5.45;;
7931;SDS011;4011;49.424;10.894;2023-02-11T06:47:57;6.72;;;4.90;;
7931;SDS011;4011;49.424;10.894;2023-02-11T06:53:20;8.00;;;5.20;;
7931;SDS011;4011;49.424;10.894;2023-02-11T06:58:41;7.65;;;5.30;;
7931;SDS011;4011;49.424;10.894;2023-02-11T07:04:02;8.18;;;5.30;;
7931;SDS011;4011;49.424;10.894;2023-02-11T07:09:25;6.40;;;4.65;;
7931;SDS011;4011;49.424;10.894;2023-02-11T07:14:46;6.60;;;4.60;;
7931;SDS011;4011;49.424;10.894;2023-02-11T07:20:08;6.18;;;4.57;;
7931;SDS011;4011;49.424;10.894;2023-02-11T07:25:32;6.47;;;4.35;;
7931;SDS011;4011;49.424;10.894;2023-02-11T07:30:55;7.25;;;4.60;;
7931;SDS011;4011;49.424;10.894;2023-02-11T07:36:17;6.10;;;4.47;;
7931;SDS011;4011;49.424;10.894;2023-02-11T07:41:39;6.57;;;4.32;;
7931;SDS011;4011;49.424;10.894;2023-02-11T07:47:01;5.38;;;4.25;;
7931;SDS011;4011;49.424;10.894;2023-02-11T07:52:23;7.15;;;4.50;;
7931;SDS011;4011;49.424;10.894;2023-02-11T07:57:45;5.43;;;3.88;;
7931;SDS011;4011;49.424;10.894;2023-02-11T08:03:07;6.40;;;4.28;;
7931;SDS011;4011;49.424;10.894;2023-02-11T08:08:29;7.15;;;5.00;;
7931;SDS011;4011;49.424;10.894;2023-02-11T08:13:51;6.78;;;4.53;;
7931;SDS011;4011;49.424;10.894;2023-02-11T08:19:14;6.95;;;4.40;;
7931;SDS011;4011;49.424;10.894;2023-02-11T08:24:35;5.57;;;4.03;;
7931;SDS011;4011;49.424;10.894;2023-02-11T08:29:58;6.22;;;4.28;;
7931;SDS011;4011;49.424;10.894;2023-02-11T08:35:20;6.20;;;4.55;;
7931;SDS011;4011;49.424;10.894;2023-02-11T08:40:42;5.32;;;4.22;;
7931;SDS011;4011;49.424;10.894;2023-02-11T08:46:05;6.43;;;4.38;;
7931;SDS011;4011;49.424;10.894;2023-02-11T08:51:26;5.72;;;4.03;;
7931;SDS011;4011;49.424;10.894;2023-02-11T08:56:49;6.15;;;4.40;;
7931;SDS011;4011;49.424;10.894;2023-02-11T09:02:13;6.15;;;4.20;;
7931;SDS011;4011;49.424;10.894;2023-02-11T09:07:34;5.82;;;4.05;;
7931;SDS011;4011;49.424;10.894;2023-02-11T09:12:56;5.25;;;3.65;;
7931;SDS011;4011;49.424;10.894;2023-02-11T09:18:19;6.25;;;3.92;;
7931;SDS011;4011;49.424;10.894;2023-02-11T09:23:40;5.78;;;3.60;;
7931;SDS011;4011;49.424;10.894;2023-02-11T09:29:04;5.95;;;3.80;;
7931;SDS011;4011;49.424;10.894;2023-02-11T09:34:26;5.75;;;3.58;;
7931;SDS011;4011;49.424;10.894;2023-02-11T09:39:48;5.03;;;3.65;;
7931;SDS011;4011;49.424;10.894;2023-02-11T09:45:11;4.65;;;3.42;;
7931;SDS011;4011;49.424;10.894;2023-02-11T09:50:37;4.88;;;3.50;;
7931;SDS011;4011;49.424;10.894;2023-02-11T09:56:00;5.43;;;3.58;;
7931;SDS011;4011;49.424;10.894;2023-02-11T10:01:24;5.28;;;3.63;;
7931;SDS011;4011;49.424;10.894;2023-02-11T10:06:50;5.72;;;3.55;;
7931;SDS011;4011;49.424;10.894;2023-02-11T10:12:17;5.95;;;3.42;;
7931;SDS011;4011;49.424;10.894;2023-02-11T10:17:44;5.75;;;3.53;;
7931;SDS011;4011;49.424;10.894;2023-02-11T10:23:12;5.03;;;3.40;;
7931;SDS011;4011;49.424;10.894;2023-02-11T10:28:35;5.10;;;3.45;;
7931;SDS011;4011;49.424;10.894;2023-02-11T10:33:59;5.72;;;3.50;;
7931;SDS011;4011;49.424;10.894;2023-02-11T10:39:27;5.05;;;3.38;;
7931;SDS011;4011;49.424;10.894;2023-02-11T10:44:52;7.63;;;3.83;;
7931;SDS011;4011;49.424;10.894;2023-02-11T10:50:20;4.97;;;3.38;;
7931;SDS011;4011;49.424;10.894;2023-02-11T10:55:49;5.97;;;3.22;;
7931;SDS011;4011;49.424;10.894;2023-02-11T11:01:11;4.47;;;3.15;;
7931;SDS011;4011;49.424;10.894;2023-02-11T11:06:33;5.43;;;3.30;;
7931;SDS011;4011;49.424;10.894;2023-02-11T11:11:56;4.97;;;3.30;;
7931;SDS011;4011;49.424;10.894;2023-02-11T11:17:17;5.47;;;3.33;;
7931;SDS011;4011;49.424;10.894;2023-02-11T11:22:39;4.50;;;3.15;;
7931;SDS011;4011;49.424;10.894;2023-02-11T11:28:02;5.15;;;3.30;;
7931;SDS011;4011;49.424;10.894;2023-02-11T11:33:24;5.00;;;3.40;;
7931;SDS011;4011;49.424;10.894;2023-02-11T11:38:47;4.68;;;3.00;;
7931;SDS011;4011;49.424;10.894;2023-02-11T11:44:16;4.55;;;3.20;;
7931;SDS011;4011;49.424;10.894;2023-02-11T11:49:40;4.90;;;3.00;;
7931;SDS011;4011;49.424;10.894;2023-02-11T11:55:05;4.43;;;2.92;;
7931;SDS011;4011;49.424;10.894;2023-02-11T12:00:34;4.35;;;3.10;;
7931;SDS011;4011;49.424;10.894;2023-02-11T12:06:03;4.78;;;3.20;;
7931;SDS011;4011;49.424;10.894;2023-02-11T12:11:29;5.40;;;3.33;;
7931;SDS011;4011;49.424;10.894;2023-02-11T12:16:56;4.53;;;2.92;;
7931;SDS011;4011;49.424;10.894;2023-02-11T12:27:43;5.72;;;3.30;;
7931;SDS011;4011;49.424;10.894;2023-02-11T12:33:10;6.18;;;3.00;;
7931;SDS011;4011;49.424;10.894;2023-02-11T12:38:39;6.22;;;3.20;;
7931;SDS011;4011;49.424;10.894;2023-02-11T12:44:05;5.15;;;3.13;;
7931;SDS011;4011;49.424;10.894;2023-02-11T12:49:34;4.75;;;3.22;;
7931;SDS011;4011;49.424;10.894;2023-02-11T12:55:00;4.80;;;3.35;;
7931;SDS011;4011;49.424;10.894;2023-02-11T13:00:22;5.18;;;2.90;;
7931;SDS011;4011;49.424;10.894;2023-02-11T13:05:47;5.95;;;3.33;;
7931;SDS011;4011;49.424;10.894;2023-02-11T13:11:10;5.35;;;3.45;;
7931;SDS011;4011;49.424;10.894;2023-02-11T13:16:34;5.43;;;3.67;;
7931;SDS011;4011;49.424;10.894;2023-02-11T13:22:03;5.30;;;3.60;;
7931;SDS011;4011;49.424;10.894;2023-02-11T13:27:28;5.68;;;3.60;;
7931;SDS011;4011;49.424;10.894;2023-02-11T13:33:13;6.50;;;3.47;;
7931;SDS011;4011;49.424;10.894;2023-02-11T13:38:37;6.95;;;3.78;;
7931;SDS011;4011;49.424;10.894;2023-02-11T13:44:00;5.80;;;3.90;;
7931;SDS011;4011;49.424;10.894;2023-02-11T13:55:14;6.82;;;3.97;;
7931;SDS011;4011;49.424;10.894;2023-02-11T14:06:15;7.72;;;4.03;;
7931;SDS011;4011;49.424;10.894;2023-02-11T14:12:15;6.70;;;4.50;;
7931;SDS011;4011;49.424;10.894;2023-02-11T14:17:37;6.80;;;4.10;;
7931;SDS011;4011;49.424;10.894;2023-02-11T14:22:58;6.57;;;4.10;;
7931;SDS011;4011;49.424;10.894;2023-02-11T14:28:21;7.18;;;3.80;;
7931;SDS011;4011;49.424;10.894;2023-02-11T14:33:57;6.43;;;3.95;;
7931;SDS011;4011;49.424;10.894;2023-02-11T14:39:28;6.00;;;3.58;;
7931;SDS011;4011;49.424;10.894;2023-02-11T14:44:54;6.18;;;3.65;;
7931;SDS011;4011;49.424;10.894;2023-02-11T14:50:17;5.18;;;3.45;;
7931;SDS011;4011;49.424;10.894;2023-02-11T14:55:39;4.90;;;3.70;;
7931;SDS011;4011;49.424;10.894;2023-02-11T15:01:03;6.35;;;3.55;;
7931;SDS011;4011;49.424;10.894;2023-02-11T15:06:29;5.88;;;4.10;;
7931;SDS011;4011;49.424;10.894;2023-02-11T15:11:51;5.78;;;3.67;;
7931;SDS011;4011;49.424;10.894;2023-02-11T15:17:15;6.95;;;4.10;;
7931;SDS011;4011;49.424;10.894;2023-02-11T15:22:37;6.70;;;3.95;;
7931;SDS011;4011;49.424;10.894;2023-02-11T15:27:58;5.32;;;3.75;;
7931;SDS011;4011;49.424;10.894;2023-02-11T15:33:21;6.70;;;3.85;;
7931;SDS011;4011;49.424;10.894;2023-02-11T15:38:44;5.40;;;3.55;;
7931;SDS011;4011;49.424;10.894;2023-02-11T15:44:24;7.38;;;3.97;;
7931;SDS011;4011;49.424;10.894;2023-02-11T15:49:47;5.57;;;3.60;;
7931;SDS011;4011;49.424;10.894;2023-02-11T15:55:11;5.38;;;3.65;;
7931;SDS011;4011;49.424;10.894;2023-02-11T16:00:34;5.53;;;3.53;;
7931;SDS011;4011;49.424;10.894;2023-02-11T16:05:58;5.32;;;3.65;;
7931;SDS011;4011;49.424;10.894;2023-02-11T16:16:57;5.40;;;3.20;;
7931;SDS011;4011;49.424;10.894;2023-02-11T16:22:23;4.70;;;3.47;;
7931;SDS011;4011;49.424;10.894;2023-02-11T16:27:47;5.28;;;3.33;;
7931;SDS011;4011;49.424;10.894;2023-02-11T16:33:08;6.07;;;3.75;;
7931;SDS011;4011;49.424;10.894;2023-02-11T16:38:32;5.65;;;3.65;;
7931;SDS011;4011;49.424;10.894;2023-02-11T16:43:55;5.85;;;3.88;;
7931;SDS011;4011;49.424;10.894;2023-02-11T16:49:19;6.00;;;3.75;;
7931;SDS011;4011;49.424;10.894;2023-02-11T16:54:42;7.20;;;4.13;;
7931;SDS011;4011;49.424;10.894;2023-02-11T17:00:04;10.07;;;5.38;;
7931;SDS011;4011;49.424;10.894;2023-02-11T17:05:25;75.75;;;33.85;;
7931;SDS011;4011;49.424;10.894;2023-02-11T17:10:48;67.88;;;29.33;;
7931;SDS011;4011;49.424;10.894;2023-02-11T17:16:15;42.88;;;20.83;;
7931;SDS011;4011;49.424;10.894;2023-02-11T17:21:38;32.88;;;17.42;;
7931;SDS011;4011;49.424;10.894;2023-02-11T17:27:01;31.05;;;13.95;;
7931;SDS011;4011;49.424;10.894;2023-02-11T17:32:23;29.35;;;13.10;;
7931;SDS011;4011;49.424;10.894;2023-02-11T17:37:44;24.67;;;12.00;;
7931;SDS011;4011;49.424;10.894;2023-02-11T17:43:07;23.88;;;11.68;;
7931;SDS011;4011;49.424;10.894;2023-02-11T17:48:28;19.08;;;10.27;;
7931;SDS011;4011;49.424;10.894;2023-02-11T17:53:49;19.75;;;10.10;;
7931;SDS011;4011;49.424;10.894;2023-02-11T17:59:12;16.55;;;8.90;;
7931;SDS011;4011;49.424;10.894;2023-02-11T18:04:33;16.70;;;9.20;;
7931;SDS011;4011;49.424;10.894;2023-02-11T18:09:55;15.48;;;8.32;;
7931;SDS011;4011;49.424;10.894;2023-02-11T18:15:17;14.63;;;8.25;;
7931;SDS011;4011;49.424;10.894;2023-02-11T18:20:39;12.77;;;7.72;;
7931;SDS011;4011;49.424;10.894;2023-02-11T18:26:01;12.00;;;7.57;;
7931;SDS011;4011;49.424;10.894;2023-02-11T18:31:28;11.07;;;7.15;;
7931;SDS011;4011;49.424;10.894;2023-02-11T18:36:49;12.90;;;6.85;;
7931;SDS011;4011;49.424;10.894;2023-02-11T18:42:10;11.88;;;7.32;;
7931;SDS011;4011;49.424;10.894;2023-02-11T18:47:33;10.15;;;6.43;;
7931;SDS011;4011;49.424;10.894;2023-02-11T18:52:54;10.20;;;6.25;;
7931;SDS011;4011;49.424;10.894;2023-02-11T18:58:16;9.27;;;6.25;;
7931;SDS011;4011;49.424;10.894;2023-02-11T19:03:39;8.88;;;5.85;;
7931;SDS011;4011;49.424;10.894;2023-02-11T19:09:01;7.68;;;5.45;;
7931;SDS011;4011;49.424;10.894;2023-02-11T19:14:24;6.88;;;5.13;;
7931;SDS011;4011;49.424;10.894;2023-02-11T19:19:46;9.10;;;6.00;;
7931;SDS011;4011;49.424;10.894;2023-02-11T19:25:08;7.07;;;5.00;;
7931;SDS011;4011;49.424;10.894;2023-02-11T19:30:30;7.97;;;6.05;;
7931;SDS011;4011;49.424;10.894;2023-02-11T19:35:52;8.18;;;5.68;;
7931;SDS011;4011;49.424;10.894;2023-02-11T19:41:14;8.18;;;5.63;;
7931;SDS011;4011;49.424;10.894;2023-02-11T19:46:38;7.10;;;5.20;;
7931;SDS011;4011;49.424;10.894;2023-02-11T19:52:01;8.10;;;5.97;;
7931;SDS011;4011;49.424;10.894;2023-02-11T19:57:23;7.25;;;5.43;;
7931;SDS011;4011;49.424;10.894;2023-02-11T20:02:44;7.53;;;5.28;;
7931;SDS011;4011;49.424;10.894;2023-02-11T20:08:07;7.68;;;5.53;;
7931;SDS011;4011;49.424;10.894;2023-02-11T20:13:28;7.32;;;5.57;;
7931;SDS011;4011;49.424;10.894;2023-02-11T20:18:50;7.00;;;5.40;;
7931;SDS011;4011;49.424;10.894;2023-02-11T20:24:13;7.72;;;5.85;;
7931;SDS011;4011;49.424;10.894;2023-02-11T20:29:34;6.55;;;5.20;;
7931;SDS011;4011;49.424;10.894;2023-02-11T20:34:55;7.65;;;5.57;;
7931;SDS011;4011;49.424;10.894;2023-02-11T20:40:18;7.45;;;5.85;;
7931;SDS011;4011;49.424;10.894;2023-02-11T20:45:40;7.15;;;5.63;;
7931;SDS011;4011;49.424;10.894;2023-02-11T20:51:02;7.82;;;6.22;;
7931;SDS011;4011;49.424;10.894;2023-02-11T20:56:26;7.97;;;6.10;;
7931;SDS011;4011;49.424;10.894;2023-02-11T21:01:49;7.90;;;6.43;;
7931;SDS011;4011;49.424;10.894;2023-02-11T21:13:00;9.00;;;7.47;;
7931;SDS011;4011;49.424;10.894;2023-02-11T21:18:22;10.07;;;7.75;;
7931;SDS011;4011;49.424;10.894;2023-02-11T21:23:44;11.35;;;8.43;;
7931;SDS011;4011;49.424;10.894;2023-02-11T21:29:07;12.80;;;9.65;;
7931;SDS011;4011;49.424;10.894;2023-02-11T21:34:28;14.52;;;9.82;;
7931;SDS011;4011;49.424;10.894;2023-02-11T21:39:49;14.05;;;10.30;;
7931;SDS011;4011;49.424;10.894;2023-02-11T21:45:12;14.18;;;10.30;;
7931;SDS011;4011;49.424;10.894;2023-02-11T21:50:37;12.88;;;9.85;;
7931;SDS011;4011;49.424;10.894;2023-02-11T21:56:04;12.10;;;8.98;;
7931;SDS011;4011;49.424;10.894;2023-02-11T22:01:28;11.35;;;8.57;;
7931;SDS011;4011;49.424;10.894;2023-02-11T22:06:50;10.20;;;8.40;;
7931;SDS011;4011;49.424;10.894;2023-02-11T22:12:11;11.38;;;8.93;;
7931;SDS011;4011;49.424;10.894;2023-02-11T22:17:34;11.15;;;8.38;;
7931;SDS011;4011;49.424;10.894;2023-02-11T22:22:55;10.50;;;7.85;;
7931;SDS011;4011;49.424;10.894;2023-02-11T22:28:16;10.23;;;7.75;;
7931;SDS011;4011;49.424;10.894;2023-02-11T22:33:40;11.90;;;7.80;;
7931;SDS011;4011;49.424;10.894;2023-02-11T22:39:02;10.45;;;7.55;;
7931;SDS011;4011;49.424;10.894;2023-02-11T22:44:24;10.70;;;7.40;;
7931;SDS011;4011;49.424;10.894;2023-02-11T22:49:46;10.95;;;7.30;;
7931;SDS011;4011;49.424;10.894;2023-02-11T22:55:08;9.30;;;7.18;;
7931;SDS011;4011;49.424;10.894;2023-02-11T23:00:29;10.30;;;7.70;;
7931;SDS011;4011;49.424;10.894;2023-02-11T23:05:52;10.50;;;7.15;;
7931;SDS011;4011;49.424;10.894;2023-02-11T23:11:15;8.27;;;6.50;;
7931;SDS011;4011;49.424;10.894;2023-02-11T23:16:37;9.18;;;7.15;;
7931;SDS011;4011;49.424;10.894;2023-02-11T23:22:00;9.57;;;7.05;;
7931;SDS011;4011;49.424;10.894;2023-02-11T23:27:22;9.40;;;6.88;;
7931;SDS011;4011;49.424;10.894;2023-02-11T23:32:43;8.25;;;6.47;;
7931;SDS011;4011;49.424;10.894;2023-02-11T23:38:06;8.35;;;6.50;;
7931;SDS011;4011;49.424;10.894;2023-02-11T23:43:27;9.38;;;6.45;;
7931;SDS011;4011;49.424;10.894;2023-02-11T23:48:49;7.50;;;6.03;;
7931;SDS011;4011;49.424;10.894;2023-02-11T23:54:13;7.38;;;5.93;;
7931;SDS011;4011;49.424;10.894;2023-02-11T23:59:34;9.50;;;6.38;;
